Time;durP1;ratioP1;P1;durP2;ratioP2;P2;SDS_P1;SDS_P2;PMS_P1;PMS_P2;Temp;Humidity;BMP_temperature;BMP_pressure;BME280_temperature;BME280_humidity;BME280_pressure;Samples;Min_cycle;Max_cycle;Signal;HPM_P1;HPM_P2
2021/07/26 00:01:15;;;;;;;25.20;23.10;;;23.00;99.90;;;;;;5098705;27;20538;-65
2021/07/26 00:03:42;;;;;;;22.43;20.40;;;23.00;99.90;;;;;;5103730;28;20548;-66
2021/07/26 00:06:10;;;;;;;21.17;19.30;;;23.00;99.90;;;;;;5105926;27;20468;-66
2021/07/26 00:08:38;;;;;;;24.27;22.27;;;23.00;99.90;;;;;;5096693;28;20477;-66
2021/07/26 00:11:07;;;;;;;26.00;23.80;;;23.00;99.90;;;;;;5103536;28;20527;-67
2021/07/26 00:13:34;;;;;;;22.63;20.73;;;23.00;99.90;;;;;;5112691;28;20950;-66
2021/07/26 00:16:01;;;;;;;27.43;24.73;;;23.00;99.90;;;;;;5107700;28;20472;-65
2021/07/26 00:18:29;;;;;;;24.50;22.30;;;23.00;99.90;;;;;;5113826;27;21007;-65
2021/07/26 00:20:56;;;;;;;25.53;23.43;;;23.00;99.90;;;;;;5114374;28;20876;-65
2021/07/26 00:23:23;;;;;;;24.37;22.23;;;23.00;99.90;;;;;;5105571;27;20511;-65
2021/07/26 00:25:52;;;;;;;23.00;21.00;;;23.00;99.90;;;;;;5112413;27;20489;-65
2021/07/26 00:28:20;;;;;;;23.60;21.77;;;23.00;99.90;;;;;;5110318;27;20469;-65
2021/07/26 00:30:46;;;;;;;24.40;22.20;;;23.00;99.90;;;;;;5115670;27;20525;-65
2021/07/26 00:34:07;;;;;;;22.97;21.10;;;23.00;99.90;;;;;;5106610;28;20864;-65
2021/07/26 00:36:35;;;;;;;23.80;21.90;;;23.00;99.90;;;;;;5096866;27;20456;-65
2021/07/26 00:39:02;;;;;;;24.67;22.47;;;23.00;99.90;;;;;;5115216;27;21016;-66
2021/07/26 00:41:30;;;;;;;27.13;24.87;;;23.00;99.90;;;;;;5111770;27;20464;-66
2021/07/26 00:43:57;;;;;;;26.13;23.63;;;23.00;99.90;;;;;;5108926;27;20469;-65
2021/07/26 00:46:24;;;;;;;26.17;23.77;;;23.00;99.90;;;;;;5101257;27;20530;-65
2021/07/26 00:48:52;;;;;;;28.63;26.17;;;23.00;99.90;;;;;;5109414;27;20522;-66
2021/07/26 00:51:20;;;;;;;27.00;24.70;;;23.00;99.90;;;;;;5113295;27;20468;-66
2021/07/26 00:53:47;;;;;;;27.27;24.93;;;23.00;99.90;;;;;;5108519;28;20849;-66
2021/07/26 00:56:15;;;;;;;28.20;25.60;;;23.00;99.90;;;;;;5113107;28;20464;-65
2021/07/26 00:58:45;;;;;;;27.20;24.47;;;23.00;99.90;;;;;;5108827;27;20491;-65
2021/07/26 01:01:13;;;;;;;30.53;27.80;;;23.00;99.90;;;;;;5108281;27;20468;-66
2021/07/26 01:03:41;;;;;;;27.03;24.83;;;23.00;99.90;;;;;;5101648;28;20461;-66
2021/07/26 01:06:08;;;;;;;27.50;25.00;;;22.90;99.90;;;;;;5109495;27;20466;-66
2021/07/26 01:08:35;;;;;;;31.50;28.60;;;22.90;99.90;;;;;;5114163;28;20469;-66
2021/07/26 01:11:03;;;;;;;28.07;25.67;;;22.90;99.90;;;;;;5102380;28;20460;-66
2021/07/26 01:13:30;;;;;;;28.10;25.70;;;22.90;99.90;;;;;;5108678;28;20469;-66
2021/07/26 01:15:59;;;;;;;26.53;24.10;;;22.90;99.90;;;;;;5107519;27;20515;-66
2021/07/26 01:18:26;;;;;;;26.47;23.97;;;22.90;99.90;;;;;;5097966;28;20530;-66
2021/07/26 01:20:56;;;;;;;24.87;22.80;;;22.90;99.90;;;;;;5108667;28;20464;-66
2021/07/26 01:23:24;;;;;;;25.87;23.57;;;22.90;99.90;;;;;;5112580;27;20949;-66
2021/07/26 01:25:52;;;;;;;24.43;21.83;;;22.90;99.90;;;;;;5104389;28;21073;-66
2021/07/26 01:28:20;;;;;;;23.37;21.27;;;22.90;99.90;;;;;;5106043;28;20477;-66
2021/07/26 01:30:49;;;;;;;24.07;22.10;;;22.90;99.90;;;;;;5114779;28;20472;-66
2021/07/26 01:33:17;;;;;;;25.80;23.43;;;22.90;99.90;;;;;;5106148;28;20541;-66
2021/07/26 01:35:45;;;;;;;23.13;21.13;;;22.90;99.90;;;;;;5102464;28;20462;-65
2021/07/26 01:38:14;;;;;;;24.80;22.70;;;22.90;99.90;;;;;;5107912;28;20526;-66
2021/07/26 01:40:44;;;;;;;24.00;22.00;;;22.90;99.90;;;;;;5106918;27;20452;-66
2021/07/26 01:43:11;;;;;;;21.97;20.17;;;22.90;99.90;;;;;;5113207;28;20461;-66
2021/07/26 01:45:40;;;;;;;24.33;22.00;;;22.90;99.90;;;;;;5101123;28;20522;-66
2021/07/26 01:48:12;;;;;;;24.37;22.27;;;22.90;99.90;;;;;;5113684;27;20953;-67
2021/07/26 01:50:45;;;;;;;22.97;21.07;;;22.90;99.90;;;;;;5105294;28;20833;-66
2021/07/26 01:53:14;;;;;;;24.33;22.30;;;22.90;99.90;;;;;;5098990;28;20886;-66
2021/07/26 01:55:41;;;;;;;24.20;22.17;;;22.90;99.90;;;;;;5104891;28;20854;-67
2021/07/26 01:58:08;;;;;;;22.97;21.17;;;22.80;99.90;;;;;;5112138;27;20855;-65
2021/07/26 02:00:35;;;;;;;23.23;21.20;;;22.80;99.90;;;;;;5099992;28;20519;-66
2021/07/26 02:03:02;;;;;;;23.23;21.33;;;22.80;99.90;;;;;;5110348;28;20514;-65
2021/07/26 02:05:29;;;;;;;21.30;19.60;;;22.80;99.90;;;;;;5111483;27;20479;-65
2021/07/26 02:07:56;;;;;;;20.87;19.17;;;22.80;99.90;;;;;;5110958;28;20526;-66
2021/07/26 02:10:24;;;;;;;21.10;19.20;;;22.80;99.90;;;;;;5099767;28;20507;-66
2021/07/26 02:12:51;;;;;;;22.23;20.37;;;22.80;99.90;;;;;;5108834;27;20461;-66
2021/07/26 02:15:18;;;;;;;23.10;21.30;;;22.80;99.90;;;;;;5111042;28;20535;-66
2021/07/26 02:17:45;;;;;;;22.60;20.87;;;22.80;99.90;;;;;;5096742;28;20523;-66
2021/07/26 02:20:13;;;;;;;21.80;20.00;;;22.80;99.90;;;;;;5103081;28;20465;-66
2021/07/26 02:22:40;;;;;;;22.60;20.80;;;22.80;99.90;;;;;;5110805;28;20468;-66
2021/07/26 02:25:08;;;;;;;25.23;23.20;;;22.80;99.90;;;;;;5113707;27;20472;-67
2021/07/26 02:27:36;;;;;;;24.90;22.73;;;22.80;99.90;;;;;;5106437;28;20864;-66
2021/07/26 02:30:04;;;;;;;25.33;23.23;;;22.80;99.90;;;;;;5111199;27;20518;-66
2021/07/26 02:32:31;;;;;;;21.33;19.70;;;22.80;99.90;;;;;;5104058;28;20464;-66
2021/07/26 02:34:57;;;;;;;25.23;23.10;;;22.80;99.90;;;;;;5113666;27;20460;-66
2021/07/26 02:37:24;;;;;;;25.30;23.30;;;22.70;99.90;;;;;;5108017;27;20541;-66
2021/07/26 02:39:51;;;;;;;25.57;23.47;;;22.70;99.90;;;;;;5103916;27;20529;-66
2021/07/26 02:42:18;;;;;;;24.47;22.37;;;22.70;99.90;;;;;;5103536;28;20959;-66
2021/07/26 02:44:46;;;;;;;27.03;24.37;;;22.70;99.90;;;;;;5105334;27;20460;-66
2021/07/26 02:47:13;;;;;;;26.07;23.90;;;22.70;99.90;;;;;;5106288;27;20473;-66
2021/07/26 02:49:40;;;;;;;27.13;24.83;;;22.70;99.90;;;;;;5104709;27;20468;-66
2021/07/26 02:52:07;;;;;;;26.57;24.27;;;22.60;99.90;;;;;;5106378;27;20476;-66
2021/07/26 02:54:34;;;;;;;25.17;22.90;;;22.60;99.90;;;;;;5105131;28;20472;-66
2021/07/26 02:57:01;;;;;;;26.37;24.13;;;22.60;99.90;;;;;;5105421;28;20476;-66
2021/07/26 02:59:28;;;;;;;26.77;24.57;;;22.60;99.90;;;;;;5105368;27;20484;-66
2021/07/26 03:01:56;;;;;;;27.63;25.10;;;22.60;99.90;;;;;;5105907;28;20470;-67
2021/07/26 03:04:23;;;;;;;26.50;24.30;;;22.60;99.90;;;;;;5106086;27;20476;-66
2021/07/26 03:06:50;;;;;;;27.10;24.90;;;22.60;99.90;;;;;;5105930;27;20469;-66
2021/07/26 03:09:17;;;;;;;25.93;23.77;;;22.60;99.90;;;;;;5106213;27;20506;-66
2021/07/26 03:11:44;;;;;;;27.37;25.00;;;22.60;99.90;;;;;;5105406;27;20456;-67
2021/07/26 03:14:11;;;;;;;27.60;25.00;;;22.60;99.90;;;;;;5105730;27;20530;-66
2021/07/26 03:16:37;;;;;;;25.67;23.60;;;22.60;99.90;;;;;;5104948;27;20470;-66
2021/07/26 03:19:06;;;;;;;24.47;22.53;;;22.60;99.90;;;;;;5105977;27;20854;-66
2021/07/26 03:21:33;;;;;;;28.40;25.80;;;22.60;99.90;;;;;;5104399;27;20476;-66
2021/07/26 03:23:59;;;;;;;26.23;24.03;;;22.60;99.90;;;;;;5105173;27;20924;-66
2021/07/26 03:26:26;;;;;;;28.90;26.60;;;22.60;99.90;;;;;;5105989;27;20464;-66
2021/07/26 03:28:53;;;;;;;26.60;24.30;;;22.60;99.90;;;;;;5105233;27;20978;-66
2021/07/26 03:31:20;;;;;;;25.63;23.50;;;22.60;99.90;;;;;;5105099;27;20473;-66
2021/07/26 03:33:47;;;;;;;26.10;23.93;;;22.60;99.90;;;;;;5105712;27;20460;-66
2021/07/26 03:36:15;;;;;;;25.03;23.07;;;22.60;99.90;;;;;;5105762;27;20791;-67
2021/07/26 03:38:42;;;;;;;24.30;22.33;;;22.60;99.90;;;;;;5105588;27;20469;-66
2021/07/26 03:41:09;;;;;;;26.93;24.63;;;22.60;99.90;;;;;;5104791;28;20469;-67
2021/07/26 03:43:36;;;;;;;26.07;23.97;;;22.60;99.90;;;;;;5104942;28;20465;-66
2021/07/26 03:46:03;;;;;;;25.77;23.77;;;22.60;99.90;;;;;;5104407;28;20484;-65
2021/07/26 03:48:30;;;;;;;27.00;24.80;;;22.60;99.90;;;;;;5105458;27;20970;-66
2021/07/26 03:50:57;;;;;;;29.67;27.00;;;22.60;99.90;;;;;;5099267;28;20488;-66
2021/07/26 03:53:25;;;;;;;25.77;23.67;;;22.60;99.90;;;;;;5116530;27;20469;-65
2021/07/26 03:55:52;;;;;;;27.23;24.93;;;22.60;99.90;;;;;;5116001;27;20982;-66
2021/07/26 03:58:19;;;;;;;27.27;24.97;;;22.60;99.90;;;;;;5116282;27;20469;-66
2021/07/26 04:00:46;;;;;;;29.47;27.07;;;22.60;99.90;;;;;;5116272;27;20460;-67
2021/07/26 04:03:18;;;;;;;38.00;34.50;;;22.60;99.90;;;;;;5116816;27;20472;-66
2021/07/26 04:05:48;;;;;;;38.50;34.80;;;22.50;99.90;;;;;;5116313;27;20472;-67
2021/07/26 04:08:17;;;;;;;44.03;39.60;;;22.50;99.90;;;;;;5116465;27;20476;-66
2021/07/26 04:10:48;;;;;;;49.77;44.37;;;22.60;99.90;;;;;;5116323;27;21015;-67
2021/07/26 04:13:15;;;;;;;52.07;46.40;;;22.60;99.90;;;;;;5116445;27;20497;-66
2021/07/26 04:15:44;;;;;;;56.93;50.53;;;22.60;99.90;;;;;;5116171;27;20461;-66
2021/07/26 04:18:12;;;;;;;54.27;46.50;;;22.60;99.90;;;;;;5116533;27;20810;-66
2021/07/26 04:20:39;;;;;;;49.17;43.87;;;22.60;99.90;;;;;;5116044;27;20532;-66
2021/07/26 04:23:06;;;;;;;49.80;44.77;;;22.60;99.90;;;;;;5116558;27;20544;-67
2021/07/26 04:25:33;;;;;;;50.00;44.47;;;22.60;99.90;;;;;;5116119;27;20539;-66
2021/07/26 04:28:01;;;;;;;45.40;40.80;;;22.60;99.90;;;;;;5116331;27;20509;-67
2021/07/26 04:30:28;;;;;;;43.83;39.23;;;22.60;99.90;;;;;;5116242;27;20541;-66
2021/07/26 04:32:55;;;;;;;40.87;37.00;;;22.60;99.90;;;;;;5116149;27;20460;-66
2021/07/26 04:35:22;;;;;;;36.83;33.23;;;22.70;99.90;;;;;;5116159;27;20467;-66
2021/07/26 04:37:49;;;;;;;34.70;31.40;;;22.70;99.90;;;;;;5115314;27;20525;-66
2021/07/26 04:40:16;;;;;;;33.90;30.70;;;22.70;99.90;;;;;;5116186;27;20464;-66
2021/07/26 04:42:44;;;;;;;35.87;32.47;;;22.70;99.90;;;;;;5115769;27;20974;-66
2021/07/26 04:45:14;;;;;;;33.23;30.37;;;22.80;99.90;;;;;;5115926;27;20551;-66
2021/07/26 04:47:41;;;;;;;31.20;28.53;;;22.80;99.90;;;;;;5115477;27;20564;-66
2021/07/26 04:50:10;;;;;;;32.50;29.57;;;22.80;99.90;;;;;;5116083;27;20848;-66
2021/07/26 04:52:37;;;;;;;31.80;29.07;;;22.80;99.90;;;;;;5115453;27;20494;-67
2021/07/26 04:55:05;;;;;;;31.53;28.57;;;22.80;99.90;;;;;;5115946;27;20468;-66
2021/07/26 04:57:32;;;;;;;30.37;27.73;;;22.80;99.90;;;;;;5115673;27;20537;-66
2021/07/26 04:59:59;;;;;;;28.60;26.20;;;22.90;99.90;;;;;;5115467;27;21004;-67
2021/07/26 05:02:27;;;;;;;29.33;26.80;;;22.90;99.90;;;;;;5114896;27;20469;-67
2021/07/26 05:04:54;;;;;;;29.90;27.37;;;22.90;99.90;;;;;;5114962;27;20472;-66
2021/07/26 05:07:21;;;;;;;26.73;24.50;;;22.90;99.90;;;;;;5115451;27;20498;-66
2021/07/26 05:09:48;;;;;;;29.23;26.87;;;23.00;99.90;;;;;;5115269;27;20494;-66
2021/07/26 05:12:15;;;;;;;26.97;24.67;;;23.00;99.90;;;;;;5115296;27;20498;-66
2021/07/26 05:14:43;;;;;;;30.43;27.93;;;23.10;99.90;;;;;;5115122;27;20498;-66
2021/07/26 05:17:10;;;;;;;27.50;25.27;;;23.10;99.90;;;;;;5115409;27;20468;-66
2021/07/26 05:19:38;;;;;;;28.23;25.87;;;23.20;99.90;;;;;;5114795;27;20460;-66
2021/07/26 05:22:06;;;;;;;29.70;27.30;;;23.20;99.90;;;;;;5115366;27;20464;-67
2021/07/26 05:24:34;;;;;;;31.37;28.30;;;23.20;99.90;;;;;;5115115;27;20962;-66
2021/07/26 05:27:02;;;;;;;28.53;26.17;;;23.30;99.90;;;;;;5114982;27;20533;-67
2021/07/26 05:29:29;;;;;;;31.63;28.53;;;23.30;99.90;;;;;;5115054;27;20469;-66
2021/07/26 05:31:58;;;;;;;27.23;25.03;;;23.30;99.90;;;;;;5114480;27;20529;-66
2021/07/26 05:34:25;;;;;;;26.90;24.67;;;23.40;99.90;;;;;;5114963;27;20467;-65
2021/07/26 05:36:53;;;;;;;25.07;23.17;;;23.50;99.90;;;;;;5114711;27;21023;-65
2021/07/26 05:39:23;;;;;;;26.07;23.77;;;23.50;99.90;;;;;;5114867;27;20469;-65
2021/07/26 05:41:50;;;;;;;26.40;23.97;;;23.60;99.90;;;;;;5114493;27;20814;-66
2021/07/26 05:44:17;;;;;;;25.97;23.87;;;23.70;99.90;;;;;;5115067;27;20464;-66
2021/07/26 05:46:44;;;;;;;25.57;23.57;;;23.80;99.90;;;;;;5114312;27;20946;-65
2021/07/26 05:49:11;;;;;;;23.40;21.50;;;23.90;99.90;;;;;;5114538;27;21019;-65
2021/07/26 05:51:38;;;;;;;24.47;22.47;;;23.90;99.90;;;;;;5114855;27;20468;-65
2021/07/26 05:54:06;;;;;;;24.57;22.27;;;24.00;99.90;;;;;;5114376;27;21268;-65
2021/07/26 05:56:37;;;;;;;22.63;20.63;;;24.00;99.90;;;;;;5114654;27;20468;-65
2021/07/26 05:59:04;;;;;;;22.80;20.90;;;24.10;99.90;;;;;;5114165;27;20459;-65
2021/07/26 06:01:47;;;;;;;22.37;20.57;;;24.20;99.90;;;;;;5114444;27;20997;-65
2021/07/26 06:04:16;;;;;;;22.83;20.90;;;24.10;99.90;;;;;;5114359;27;20452;-65
2021/07/26 06:06:43;;;;;;;24.40;22.30;;;24.10;99.90;;;;;;5114366;27;20551;-65
2021/07/26 06:09:12;;;;;;;23.53;21.63;;;24.20;99.90;;;;;;5113682;27;21015;-65
2021/07/26 06:11:40;;;;;;;23.67;21.70;;;24.10;99.90;;;;;;5114247;27;20541;-65
2021/07/26 06:14:08;;;;;;;24.17;22.17;;;24.10;99.90;;;;;;5113455;27;20473;-65
2021/07/26 06:16:35;;;;;;;22.37;20.47;;;24.10;99.90;;;;;;5114294;27;20476;-65
2021/07/26 06:19:09;;;;;;;20.90;19.27;;;24.10;99.90;;;;;;5113447;27;20498;-65
2021/07/26 06:21:40;;;;;;;21.90;20.20;;;24.00;99.90;;;;;;5114238;27;20872;-65
2021/07/26 06:24:07;;;;;;;21.00;19.13;;;24.00;99.90;;;;;;5113778;27;20543;-65
2021/07/26 06:26:35;;;;;;;24.93;22.77;;;24.00;99.90;;;;;;5114074;27;20947;-65
2021/07/26 06:29:02;;;;;;;25.60;23.50;;;24.00;99.90;;;;;;5113562;27;20821;-65
2021/07/26 06:31:29;;;;;;;23.70;21.80;;;24.00;99.90;;;;;;5114037;27;20468;-65
2021/07/26 06:33:56;;;;;;;27.47;25.27;;;24.10;99.90;;;;;;5113533;27;20501;-65
2021/07/26 06:36:23;;;;;;;25.03;23.03;;;24.10;99.90;;;;;;5113852;27;20992;-65
2021/07/26 06:38:49;;;;;;;27.00;24.80;;;24.20;99.90;;;;;;5113612;27;20537;-65
2021/07/26 06:41:16;;;;;;;24.63;22.57;;;24.30;99.90;;;;;;5113324;27;20460;-65
2021/07/26 06:43:44;;;;;;;26.57;24.47;;;24.40;99.90;;;;;;5113675;27;20476;-65
2021/07/26 06:46:11;;;;;;;27.20;24.90;;;24.40;99.90;;;;;;5113268;27;20533;-65
2021/07/26 06:48:38;;;;;;;23.90;21.90;;;24.50;99.90;;;;;;5113464;27;20464;-66
2021/07/26 06:51:05;;;;;;;25.13;22.87;;;24.50;99.90;;;;;;5113079;27;20969;-65
2021/07/26 06:53:33;;;;;;;23.90;21.90;;;24.50;99.90;;;;;;5113782;27;20467;-65
2021/07/26 06:56:04;;;;;;;26.70;24.40;;;24.60;99.90;;;;;;5113020;27;20608;-66
2021/07/26 06:58:32;;;;;;;25.57;23.50;;;24.60;99.90;;;;;;5113393;27;20910;-66
2021/07/26 07:01:04;;;;;;;24.27;22.37;;;24.60;99.90;;;;;;5113228;27;20545;-66
2021/07/26 07:03:31;;;;;;;23.07;21.00;;;24.80;99.90;;;;;;5113475;27;20460;-66
2021/07/26 07:06:02;;;;;;;25.57;23.37;;;25.00;99.90;;;;;;5112961;27;20460;-65
2021/07/26 07:08:29;;;;;;;26.67;24.37;;;25.00;99.90;;;;;;5113341;27;20460;-66
2021/07/26 07:11:06;;;;;;;22.17;20.30;;;25.10;99.90;;;;;;5112954;27;20543;-65
2021/07/26 07:13:34;;;;;;;23.40;21.60;;;25.30;99.90;;;;;;5113279;27;20487;-65
2021/07/26 07:16:00;;;;;;;23.17;21.27;;;25.30;99.90;;;;;;5112982;27;20961;-65
2021/07/26 07:18:29;;;;;;;22.90;21.03;;;25.40;99.90;;;;;;5113332;27;20456;-66
2021/07/26 07:20:56;;;;;;;21.70;19.90;;;25.50;99.90;;;;;;5112721;27;20517;-65
2021/07/26 07:23:23;;;;;;;20.27;18.53;;;25.60;99.90;;;;;;5113095;27;20718;-66
2021/07/26 07:25:50;;;;;;;20.13;18.30;;;25.80;99.90;;;;;;5112413;27;20494;-65
2021/07/26 07:28:17;;;;;;;18.47;16.93;;;25.80;99.90;;;;;;5112562;27;20464;-65
2021/07/26 07:30:44;;;;;;;17.37;15.73;;;25.80;99.90;;;;;;5113285;27;20823;-65
2021/07/26 07:33:11;;;;;;;17.77;16.23;;;25.90;99.90;;;;;;5112553;27;20970;-65
2021/07/26 07:35:40;;;;;;;16.70;15.30;;;25.90;99.90;;;;;;5112993;27;20453;-65
2021/07/26 07:38:08;;;;;;;17.90;16.40;;;25.90;99.90;;;;;;5112625;27;20475;-66
2021/07/26 07:40:37;;;;;;;18.60;17.13;;;26.00;99.90;;;;;;5112841;27;20526;-65
2021/07/26 07:43:04;;;;;;;15.90;14.70;;;26.20;99.90;;;;;;5112507;27;20768;-65
2021/07/26 07:45:32;;;;;;;17.80;16.40;;;26.40;99.90;;;;;;5112969;27;20530;-66
2021/07/26 07:47:59;;;;;;;17.27;15.87;;;26.50;99.90;;;;;;5112544;27;20791;-65
2021/07/26 07:50:26;;;;;;;19.30;17.43;;;26.60;99.90;;;;;;5112985;27;20468;-65
2021/07/26 07:52:55;;;;;;;19.27;17.60;;;26.70;99.90;;;;;;5112926;27;20638;-66
2021/07/26 07:55:22;;;;;;;18.83;17.13;;;26.70;99.90;;;;;;5112483;27;20456;-66
2021/07/26 07:57:51;;;;;;;16.43;15.10;;;26.70;99.90;;;;;;5112547;27;20494;-66
2021/07/26 08:00:20;;;;;;;18.47;16.97;;;26.80;99.90;;;;;;5112384;27;20471;-66
2021/07/26 08:02:47;;;;;;;16.43;15.10;;;26.80;99.90;;;;;;5112694;27;20556;-67
2021/07/26 08:05:16;;;;;;;15.63;14.17;;;26.90;99.90;;;;;;5112155;27;20472;-65
2021/07/26 08:07:43;;;;;;;15.87;14.50;;;27.10;99.90;;;;;;5112737;27;20488;-66
2021/07/26 08:10:12;;;;;;;16.83;15.50;;;27.20;99.90;;;;;;5112322;27;20526;-65
2021/07/26 08:12:39;;;;;;;16.10;14.70;;;27.40;99.90;;;;;;5112630;27;20464;-65
2021/07/26 08:15:07;;;;;;;15.47;14.20;;;27.50;99.90;;;;;;5112392;27;20841;-65
2021/07/26 08:17:33;;;;;;;14.10;13.00;;;27.60;99.90;;;;;;5112697;27;20529;-65
2021/07/26 08:20:03;;;;;;;15.90;14.53;;;27.70;99.90;;;;;;5112186;27;20533;-65
2021/07/26 08:22:30;;;;;;;15.13;13.83;;;27.70;99.90;;;;;;5112752;27;20810;-66
2021/07/26 08:24:57;;;;;;;14.53;13.23;;;27.80;99.90;;;;;;5112412;27;20522;-65
2021/07/26 08:27:25;;;;;;;14.30;13.20;;;27.80;99.90;;;;;;5111909;27;20533;-65
2021/07/26 08:29:52;;;;;;;14.70;12.87;;;27.80;99.90;;;;;;5112734;27;20486;-65
2021/07/26 08:32:19;;;;;;;14.20;13.07;;;27.80;99.90;;;;;;5111855;27;20534;-65
2021/07/26 08:34:48;;;;;;;13.70;12.57;;;27.80;99.90;;;;;;5112529;27;20471;-65
2021/07/26 08:37:14;;;;;;;14.20;13.10;;;27.80;99.90;;;;;;5112960;27;20498;-65
2021/07/26 08:39:41;;;;;;;12.50;11.47;;;27.80;99.90;;;;;;5116065;27;20464;-65
2021/07/26 08:42:08;;;;;;;12.40;11.40;;;27.80;99.90;;;;;;5115698;27;20473;-66
2021/07/26 08:44:37;;;;;;;21.30;19.53;;;27.70;99.90;;;;;;5116387;27;20777;-65
2021/07/26 08:47:05;;;;;;;22.20;20.27;;;27.70;99.90;;;;;;5115496;27;20473;-65
2021/07/26 08:49:34;;;;;;;17.33;16.00;;;27.70;99.90;;;;;;5116091;27;20533;-65
2021/07/26 08:52:02;;;;;;;15.00;13.70;;;27.70;99.90;;;;;;5115514;27;20817;-65
2021/07/26 08:54:30;;;;;;;14.80;13.60;;;27.70;99.90;;;;;;5115734;27;20460;-65
2021/07/26 08:56:59;;;;;;;16.00;14.60;;;27.70;99.90;;;;;;5115822;27;20555;-65
2021/07/26 08:59:25;;;;;;;14.63;13.43;;;27.70;99.90;;;;;;5115364;27;20959;-65
2021/07/26 09:01:55;;;;;;;14.47;13.13;;;27.80;99.90;;;;;;5115640;27;20476;-65
2021/07/26 09:04:22;;;;;;;12.80;11.70;;;27.80;99.90;;;;;;5115229;27;20491;-65
2021/07/26 09:06:52;;;;;;;14.03;12.83;;;27.80;99.90;;;;;;5115832;27;20477;-65
2021/07/26 09:09:19;;;;;;;15.37;14.17;;;27.80;99.90;;;;;;5114996;27;20521;-65
2021/07/26 09:11:47;;;;;;;14.57;13.37;;;27.80;99.90;;;;;;5115633;27;20517;-65
2021/07/26 09:14:38;;;;;;;14.53;13.33;;;27.90;99.90;;;;;;5115060;27;20468;-65
2021/07/26 09:17:08;;;;;;;13.73;12.63;;;27.90;99.90;;;;;;5115086;27;20543;-65
2021/07/26 09:19:56;;;;;;;13.33;12.23;;;27.90;99.90;;;;;;5115308;27;20526;-65
2021/07/26 09:22:28;;;;;;;15.60;14.27;;;27.80;99.90;;;;;;5114753;27;20575;-65
2021/07/26 09:25:19;;;;;;;16.90;15.60;;;27.80;99.90;;;;;;5115341;27;20526;-65
2021/07/26 09:28:07;;;;;;;15.37;14.10;;;27.80;99.90;;;;;;5114941;27;20535;-64
2021/07/26 09:30:36;;;;;;;14.30;13.10;;;27.70;99.90;;;;;;5115146;27;20453;-64
2021/07/26 09:33:14;;;;;;;13.43;12.30;;;27.60;99.90;;;;;;5114811;27;20962;-64
2021/07/26 09:35:41;;;;;;;12.17;11.27;;;27.60;99.90;;;;;;5115347;27;20456;-65
2021/07/26 09:38:08;;;;;;;11.77;10.77;;;27.70;99.90;;;;;;5114322;27;21015;-65
2021/07/26 09:40:36;;;;;;;13.37;12.27;;;27.70;99.90;;;;;;5114906;27;20518;-65
2021/07/26 09:43:18;;;;;;;13.90;12.90;;;27.80;99.90;;;;;;5114667;27;20472;-64
2021/07/26 09:45:45;;;;;;;14.60;13.33;;;28.00;99.90;;;;;;5114845;27;20473;-64
2021/07/26 09:48:15;;;;;;;13.40;12.40;;;28.00;99.90;;;;;;5114337;27;21374;-65
2021/07/26 09:50:43;;;;;;;14.07;12.93;;;28.10;99.90;;;;;;5114072;27;20464;-64
2021/07/26 09:53:14;;;;;;;14.07;12.97;;;28.10;99.90;;;;;;5114318;27;20460;-64
2021/07/26 09:55:44;;;;;;;14.07;12.97;;;28.20;99.90;;;;;;5123623;27;20468;-65
2021/07/26 09:58:12;;;;;;;9.73;9.00;;;28.20;99.90;;;;;;5105065;27;20526;-65
2021/07/26 10:00:40;;;;;;;9.90;9.00;;;28.10;99.90;;;;;;5094080;28;20568;-65
2021/07/26 10:03:10;;;;;;;9.30;8.50;;;28.10;99.70;;;;;;5093748;28;20521;-65
2021/07/26 10:05:41;;;;;;;11.13;10.13;;;28.20;99.60;;;;;;5097971;28;20475;-64
2021/07/26 10:08:09;;;;;;;10.43;9.57;;;28.20;99.90;;;;;;5113780;27;20814;-64
2021/07/26 10:10:37;;;;;;;13.10;12.00;;;28.20;99.90;;;;;;5114328;27;20459;-65
2021/07/26 10:13:07;;;;;;;15.70;14.43;;;28.10;99.90;;;;;;5099170;27;20465;-65
2021/07/26 10:15:34;;;;;;;18.23;16.73;;;28.20;99.80;;;;;;5114348;27;20468;-64
2021/07/26 10:18:00;;;;;;;24.20;22.17;;;28.20;99.90;;;;;;5113687;27;20472;-65
2021/07/26 10:20:29;;;;;;;14.10;13.00;;;28.30;99.90;;;;;;5114089;27;20525;-65
2021/07/26 10:23:03;;;;;;;12.37;11.37;;;28.30;98.90;;;;;;5113743;27;20477;-65
2021/07/26 10:25:38;;;;;;;23.53;21.63;;;28.30;99.10;;;;;;5114190;27;20485;-66
2021/07/26 10:28:14;;;;;;;21.20;19.50;;;28.40;99.70;;;;;;5098099;27;20542;-66
2021/07/26 10:30:41;;;;;;;11.07;10.17;;;28.40;99.90;;;;;;5093572;28;20465;-65
2021/07/26 10:33:08;;;;;;;9.40;8.60;;;28.40;98.80;;;;;;5093276;28;20473;-65
2021/07/26 10:35:37;;;;;;;9.77;8.97;;;28.40;98.10;;;;;;5093504;28;20470;-65
2021/07/26 10:38:07;;;;;;;10.03;9.13;;;28.50;97.80;;;;;;5092958;28;20518;-65
2021/07/26 10:40:38;;;;;;;13.23;12.23;;;28.50;98.50;;;;;;5093519;28;20469;-65
2021/07/26 10:43:05;;;;;;;14.47;13.37;;;28.60;99.40;;;;;;5093056;28;20473;-65
2021/07/26 10:46:00;;;;;;;19.97;18.27;;;28.60;99.40;;;;;;5093168;28;20468;-65
2021/07/26 10:48:33;;;;;;;20.93;19.03;;;28.60;99.30;;;;;;5093644;28;20485;-65
2021/07/26 10:51:01;;;;;;;24.60;22.70;;;28.70;99.30;;;;;;5103468;27;21041;-65
2021/07/26 10:53:58;;;;;;;22.00;20.00;;;28.70;99.30;;;;;;5113472;27;20464;-65
2021/07/26 10:56:25;;;;;;;14.10;12.67;;;28.70;99.90;;;;;;5112648;27;20467;-65
2021/07/26 10:59:03;;;;;;;13.10;12.10;;;28.70;99.10;;;;;;5112180;27;20468;-65
2021/07/26 11:01:40;;;;;;;11.20;10.30;;;28.70;98.90;;;;;;5111930;27;20492;-65
2021/07/26 11:04:38;;;;;;;11.80;10.90;;;28.70;98.10;;;;;;5113438;27;20460;-65
2021/07/26 11:07:20;;;;;;;11.07;10.07;;;28.80;97.90;;;;;;5113163;27;20460;-64
2021/07/26 11:09:49;;;;;;;11.50;10.60;;;28.80;97.10;;;;;;5111595;27;20847;-65
2021/07/26 11:12:52;;;;;;;12.40;11.50;;;28.80;97.50;;;;;;5112830;27;20456;-64
2021/07/26 11:15:20;;;;;;;13.50;12.40;;;28.90;98.30;;;;;;5112799;27;20452;-64
2021/07/26 11:18:32;;;;;;;13.53;12.53;;;28.90;98.40;;;;;;5113145;27;20479;-65
2021/07/26 11:21:04;;;;;;;13.10;12.10;;;28.90;98.60;;;;;;5112896;27;20484;-65
2021/07/26 11:23:42;;;;;;;11.87;10.90;;;29.00;98.60;;;;;;5113076;27;20463;-65
2021/07/26 11:26:16;;;;;;;12.10;11.20;;;29.00;98.90;;;;;;5112767;27;20467;-65
2021/07/26 11:28:44;;;;;;;11.20;10.20;;;29.00;98.60;;;;;;5113132;27;20526;-64
2021/07/26 11:31:12;;;;;;;10.37;9.47;;;29.00;97.90;;;;;;5112723;27;20460;-64
2021/07/26 11:33:39;;;;;;;9.70;9.00;;;29.00;97.50;;;;;;5113164;27;20554;-65
2021/07/26 11:36:08;;;;;;;8.27;7.67;;;29.10;96.20;;;;;;5112666;27;20533;-64
2021/07/26 11:39:04;;;;;;;12.37;11.33;;;29.10;96.70;;;;;;5112916;27;21023;-64
2021/07/26 11:41:32;;;;;;;10.77;9.87;;;29.10;97.00;;;;;;5112932;27;20488;-64
2021/07/26 11:43:59;;;;;;;9.80;9.10;;;29.10;96.80;;;;;;5113010;27;20473;-64
2021/07/26 11:46:28;;;;;;;9.93;9.23;;;29.10;96.50;;;;;;5112851;27;20530;-65
2021/07/26 11:48:57;;;;;;;10.53;9.67;;;29.20;96.50;;;;;;5112717;27;20556;-65
2021/07/26 11:51:30;;;;;;;10.83;9.97;;;29.20;96.50;;;;;;5112904;27;20523;-65
2021/07/26 11:53:59;;;;;;;9.50;8.80;;;29.20;96.60;;;;;;5112508;27;20449;-65
2021/07/26 11:56:28;;;;;;;9.50;8.80;;;29.30;96.00;;;;;;5112917;27;20518;-64
2021/07/26 11:59:16;;;;;;;10.17;9.47;;;29.30;96.30;;;;;;5129554;27;20547;-65
2021/07/26 12:01:48;;;;;;;8.97;8.37;;;29.30;96.50;;;;;;5132864;27;21026;-64
2021/07/26 12:04:16;;;;;;;9.00;8.27;;;29.30;95.90;;;;;;5133196;27;20985;-64
2021/07/26 12:06:57;;;;;;;8.53;7.93;;;29.30;95.50;;;;;;5133087;27;20550;-64
2021/07/26 12:09:24;;;;;;;9.00;8.30;;;29.30;95.50;;;;;;5133419;27;20797;-64
2021/07/26 12:11:52;;;;;;;9.50;8.80;;;29.30;95.80;;;;;;5133120;27;20479;-64
2021/07/26 12:14:29;;;;;;;10.07;9.17;;;29.30;96.40;;;;;;5125844;27;20464;-64
2021/07/26 12:17:00;;;;;;;10.00;9.20;;;29.30;97.00;;;;;;5116313;27;20848;-64
2021/07/26 12:19:27;;;;;;;11.57;10.60;;;29.20;97.60;;;;;;5116599;27;20460;-63
2021/07/26 12:21:55;;;;;;;10.00;9.30;;;29.20;99.90;;;;;;5115966;27;20468;-63
2021/07/26 12:25:01;;;;;;;10.00;9.20;;;29.10;99.90;;;;;;5116433;27;20560;-64
2021/07/26 12:27:33;;;;;;;11.63;10.60;;;28.90;99.90;;;;;;5116134;27;20460;-64
2021/07/26 12:30:06;;;;;;;10.87;9.97;;;28.80;99.90;;;;;;5116374;27;20542;-64
2021/07/26 12:32:47;;;;;;;11.47;10.60;;;28.70;99.90;;;;;;5095605;28;20970;-63
2021/07/26 12:35:26;;;;;;;10.87;9.83;;;28.60;99.90;;;;;;5095938;28;20495;-65
2021/07/26 12:38:07;;;;;;;10.40;9.60;;;28.50;99.90;;;;;;5105690;27;20942;-64
2021/07/26 12:40:36;;;;;;;11.30;10.33;;;28.40;99.90;;;;;;5116544;27;20472;-64